KBFM/BFM METAR and TAF weather

Enter ICAO airport designator
Station Type Date Time Source
KBFM METAR 2019/10/18 10:53 UTC NOAA

KBFM 181053Z 04010KT 10SM BKN110 18/09 A2992 RMK AO2 SLP131 T01780094


Station Type Date Time Source
KBFM Decoded METAR 2019/10/18 10:53 UTC NOAA

MOBILE DOWNTOWN AIRPORT, AL, United States (KBFM) 30-38N 88-04W 20M
Oct 18, 2019 - 06:53 AM EDT / 2019.10.18 1053 UTC
Wind: from the NE (040 degrees) at 12 MPH (10 KT):0
Visibility: 10 mile(s):0
Sky conditions: mostly cloudy
Temperature: 64.0 F (17.8 C)
Dew Point: 48.9 F (9.4 C)
Relative Humidity: 57%
Pressure (altimeter): 29.92 in. Hg (1013 hPa)
ob: KBFM 181053Z 04010KT 10SM BKN110 18/09 A2992 RMK AO2 SLP131 T01780094
cycle: 11

Station Type Date Time Source
KBFM TAF 2019/10/18 06:22 UTC NOAA

TAF KBFM 180520Z 1806/1906 36007KT P6SM OVC250
FM181700 04012G18KT P6SM VCSH BKN030 BKN050
FM182100 02016G23KT P6SM SHRA OVC020

Example: see airport list